Time,TemperatureF,DewpointF,PressureIn,WindDirection,WindDirectionDegrees,WindSpeedMPH,WindSpeedGustMPH,Humidity,HourlyPrecipIn,Conditions,Clouds,dailyrainin,SoftwareType,DateUTC
2013-12-22 00:05:00,45.5,45.5,30.23,NNE,17,0.0,0.0,100,0.00,,,0.08,Wunderground v.1.15,2013-12-22 08:05:00,
2013-12-22 00:35:00,45.7,45.7,30.24,NNE,17,0.0,0.0,100,0.00,,,0.00,Wunderground v.1.15,2013-12-22 08:35:00,
2013-12-22 01:05:00,45.7,45.7,30.24,NNE,17,0.0,0.0,100,0.00,,,0.00,Wunderground v.1.15,2013-12-22 09:05:00,
2013-12-22 01:35:00,45.7,45.7,30.23,NNE,17,0.0,0.0,100,0.00,,,0.00,Wunderground v.1.15,2013-12-22 09:35:00,
2013-12-22 02:05:00,45.7,45.7,30.24,NNE,17,0.0,0.0,100,0.00,,,0.00,Wunderground v.1.15,2013-12-22 10:05:00,
2013-12-22 02:35:00,45.4,45.4,30.24,NNE,17,0.0,0.0,100,0.00,,,0.00,Wunderground v.1.15,2013-12-22 10:35:00,
2013-12-22 03:05:00,45.2,45.2,30.25,NNE,17,0.0,0.0,100,0.00,,,0.00,Wunderground v.1.15,2013-12-22 11:05:00,
2013-12-22 03:35:00,45.2,45.2,30.25,NNE,17,0.0,0.0,100,0.00,,,0.00,Wunderground v.1.15,2013-12-22 11:35:00,
2013-12-22 04:05:00,45.2,45.2,30.26,NNE,17,0.0,0.0,100,0.00,,,0.00,Wunderground v.1.15,2013-12-22 12:05:00,
2013-12-22 04:35:00,45.4,45.4,30.25,NNE,17,0.0,0.0,100,0.00,,,0.00,Wunderground v.1.15,2013-12-22 12:35:00,
2013-12-22 05:05:00,45.2,45.2,30.25,NNE,17,0.0,0.0,100,0.00,,,0.00,Wunderground v.1.15,2013-12-22 13:05:00,
2013-12-22 05:35:00,45.5,45.5,30.25,NNE,17,0.0,0.0,100,0.00,,,0.00,Wunderground v.1.15,2013-12-22 13:35:00,
2013-12-22 06:05:00,45.7,45.7,30.25,NNE,17,0.0,0.0,100,0.00,,,0.00,Wunderground v.1.15,2013-12-22 14:05:00,
2013-12-22 06:35:00,45.8,45.8,30.25,NNE,17,0.0,0.0,100,0.00,,,0.00,Wunderground v.1.15,2013-12-22 14:35:00,
2013-12-22 07:05:00,45.8,45.8,30.26,NNE,17,0.0,0.0,100,0.00,,,0.00,Wunderground v.1.15,2013-12-22 15:05:00,
2013-12-22 07:35:00,46.1,46.1,30.26,NNE,17,0.0,0.0,100,0.00,,,0.00,Wunderground v.1.15,2013-12-22 15:35:00,
2013-12-22 08:05:00,46.2,46.2,30.27,NNE,17,0.0,0.0,100,0.00,,,0.00,Wunderground v.1.15,2013-12-22 16:05:00,
2013-12-22 08:35:00,46.5,46.5,30.28,NNE,17,0.0,0.0,100,0.00,,,0.00,Wunderground v.1.15,2013-12-22 16:35:00,
2013-12-22 09:05:00,47.3,47.3,30.30,NNE,17,0.0,0.0,100,0.00,,,0.00,Wunderground v.1.15,2013-12-22 17:05:00,
2013-12-22 09:35:00,48.0,48.0,30.30,NNE,17,0.0,0.0,100,0.00,,,0.00,Wunderground v.1.15,2013-12-22 17:35:00,
2013-12-22 10:05:00,48.9,48.9,30.31,NNE,17,0.0,0.0,100,0.00,,,0.00,Wunderground v.1.15,2013-12-22 18:05:00,
2013-12-22 10:35:00,49.6,49.6,30.32,NNE,17,0.0,0.0,100,0.00,,,0.00,Wunderground v.1.15,2013-12-22 18:35:00,
2013-12-22 11:05:00,50.5,50.5,30.32,WNW,287,0.0,0.0,100,0.00,,,0.00,Wunderground v.1.15,2013-12-22 19:05:00,
2013-12-22 11:35:00,51.4,51.4,30.32,WNW,287,0.0,0.0,100,0.00,,,0.00,Wunderground v.1.15,2013-12-22 19:35:00,
2013-12-22 12:05:00,51.9,51.9,30.31,WNW,287,0.0,0.0,100,0.00,,,0.00,Wunderground v.1.15,2013-12-22 20:05:00,
2013-12-22 12:35:00,52.2,52.2,30.31,WNW,287,0.0,0.0,100,0.00,,,0.00,Wunderground v.1.15,2013-12-22 20:35:00,
2013-12-22 13:05:00,51.7,51.7,30.30,SW,227,0.0,0.0,100,0.00,,,0.00,Wunderground v.1.15,2013-12-22 21:05:00,
2013-12-22 13:35:00,52.2,52.2,30.29,WNW,298,0.0,0.0,100,0.00,,,0.00,Wunderground v.1.15,2013-12-22 21:35:00,
2013-12-22 14:05:00,52.0,52.0,30.28,North,0,0.0,0.0,100,0.00,,,0.00,Wunderground v.1.15,2013-12-22 22:05:00,
2013-12-22 14:35:00,51.4,51.4,30.29,North,0,0.0,0.0,100,0.00,,,0.00,Wunderground v.1.15,2013-12-22 22:35:00,
2013-12-22 15:05:00,51.3,51.3,30.30,North,0,0.0,0.0,100,0.00,,,0.00,Wunderground v.1.15,2013-12-22 23:05:00,
2013-12-22 15:35:00,50.8,50.8,30.30,North,0,0.0,0.0,100,0.00,,,0.00,Wunderground v.1.15,2013-12-22 23:35:00,
2013-12-22 16:05:00,50.5,50.5,30.30,North,0,0.0,0.0,100,0.00,,,0.00,Wunderground v.1.15,2013-12-23 00:05:00,
2013-12-22 16:35:00,50.1,50.1,30.31,North,0,0.0,0.0,100,0.00,,,0.00,Wunderground v.1.15,2013-12-23 00:35:00,
2013-12-22 17:05:00,49.9,49.9,30.30,North,0,0.0,0.0,100,0.00,,,0.00,Wunderground v.1.15,2013-12-23 01:05:00,
2013-12-22 17:35:00,49.8,49.8,30.30,North,0,0.0,0.0,100,0.00,,,0.00,Wunderground v.1.15,2013-12-23 01:35:00,
2013-12-22 18:05:00,49.4,49.4,30.30,North,0,0.0,0.0,100,0.00,,,0.00,Wunderground v.1.15,2013-12-23 02:05:00,
2013-12-22 18:35:00,49.4,49.4,30.30,North,0,0.0,0.0,100,0.00,,,0.00,Wunderground v.1.15,2013-12-23 02:35:00,
2013-12-22 19:05:00,49.4,49.4,30.30,North,0,0.0,0.0,100,0.00,,,0.00,Wunderground v.1.15,2013-12-23 03:05:00,
2013-12-22 19:35:00,49.2,49.2,30.30,North,0,0.0,0.0,100,0.00,,,0.00,Wunderground v.1.15,2013-12-23 03:35:00,
2013-12-22 20:05:00,49.1,49.1,30.31,North,0,0.0,0.0,100,0.00,,,0.00,Wunderground v.1.15,2013-12-23 04:05:00,
2013-12-22 20:35:00,48.9,48.9,30.30,North,0,0.0,0.0,100,0.00,,,0.00,Wunderground v.1.15,2013-12-23 04:35:00,
2013-12-22 21:05:00,48.5,48.5,30.30,North,0,0.0,0.0,100,0.00,,,0.00,Wunderground v.1.15,2013-12-23 05:05:00,
2013-12-22 21:35:00,48.0,48.0,30.31,North,0,0.0,0.0,100,0.00,,,0.00,Wunderground v.1.15,2013-12-23 05:35:00,
2013-12-22 22:05:00,48.0,48.0,30.31,North,0,0.0,0.0,100,0.00,,,0.00,Wunderground v.1.15,2013-12-23 06:05:00,
2013-12-22 22:35:00,48.0,48.0,30.32,North,0,0.0,0.0,100,0.00,,,0.00,Wunderground v.1.15,2013-12-23 06:35:00,
2013-12-22 23:05:00,48.2,48.2,30.32,North,0,0.0,0.0,100,0.00,,,0.00,Wunderground v.1.15,2013-12-23 07:05:00,
2013-12-22 23:35:00,48.2,48.2,30.32,North,0,0.0,0.0,100,0.00,,,0.00,Wunderground v.1.15,2013-12-23 07:35:00,